createdAt,value
2019-04-01T00:01:57.296Z,61.40
2019-04-01T00:04:26.172Z,61.70
2019-04-01T00:06:55.059Z,62.80
2019-04-01T00:09:24.059Z,62.50
2019-04-01T00:11:52.965Z,62.80
2019-04-01T00:14:21.762Z,63.00
2019-04-01T00:16:50.628Z,63.00
2019-04-01T00:19:19.533Z,62.90
2019-04-01T00:21:48.532Z,63.60
2019-04-01T00:24:17.423Z,63.80
2019-04-01T00:26:46.302Z,64.00
2019-04-01T00:29:15.188Z,65.80
2019-04-01T00:31:44.024Z,66.10
2019-04-01T00:34:12.896Z,66.40
2019-04-01T00:36:41.790Z,67.70
2019-04-01T00:39:10.947Z,67.70
2019-04-01T00:41:51.137Z,68.80
2019-04-01T00:44:20.058Z,69.30
2019-04-01T00:46:48.993Z,69.40
2019-04-01T00:49:18.074Z,70.20
2019-04-01T00:51:47.120Z,72.30
2019-04-01T00:54:15.933Z,72.50
2019-04-01T00:56:44.893Z,72.60
2019-04-01T00:59:13.717Z,73.60
2019-04-01T01:01:42.536Z,73.00
2019-04-01T01:04:11.329Z,73.40
2019-04-01T01:06:40.144Z,73.50
2019-04-01T01:09:08.915Z,73.30
2019-04-01T01:11:37.774Z,74.20
2019-04-01T01:14:06.707Z,75.50
2019-04-01T01:16:35.540Z,75.80
2019-04-01T01:19:04.560Z,76.50
2019-04-01T01:21:34.647Z,76.90
2019-04-01T01:24:03.778Z,77.00
2019-04-01T01:26:32.721Z,78.50
2019-04-01T01:29:01.569Z,81.40
2019-04-01T01:31:30.544Z,83.80
2019-04-01T01:33:59.379Z,83.90
2019-04-01T01:36:28.287Z,85.70
2019-04-01T01:38:57.117Z,87.30
2019-04-01T01:41:25.918Z,88.60
2019-04-01T01:43:54.765Z,89.40
2019-04-01T01:46:23.652Z,90.20
2019-04-01T01:48:52.536Z,91.20
2019-04-01T01:51:21.387Z,91.70
2019-04-01T01:53:50.257Z,92.10
2019-04-01T01:56:19.093Z,92.30
2019-04-01T01:58:48.003Z,92.20
2019-04-01T02:01:16.907Z,92.70
2019-04-01T02:03:45.708Z,93.00
2019-04-01T02:06:14.483Z,93.80
2019-04-01T02:08:43.316Z,93.80
2019-04-01T02:11:12.228Z,94.20
2019-04-01T02:13:41.062Z,96.00
2019-04-01T02:16:09.958Z,96.10
2019-04-01T02:18:38.904Z,96.40
2019-04-01T02:21:07.739Z,96.70
2019-04-01T02:23:36.516Z,97.30
2019-04-01T02:26:05.406Z,98.60
2019-04-01T02:28:34.338Z,98.80
2019-04-01T02:31:03.352Z,98.90
2019-04-01T02:33:32.193Z,99.00
2019-04-01T02:36:00.994Z,98.80
2019-04-01T02:38:29.974Z,99.80
2019-04-01T02:40:59.048Z,99.90
2019-04-01T02:43:27.883Z,99.90
2019-04-01T02:45:56.775Z,99.90
2019-04-01T02:48:25.682Z,99.90
2019-04-01T02:50:54.533Z,99.90
2019-04-01T02:53:23.386Z,99.90
2019-04-01T02:55:52.281Z,99.90
2019-04-01T02:58:21.165Z,99.90
2019-04-01T03:00:50.287Z,99.90
2019-04-01T03:03:19.413Z,99.90
2019-04-01T03:05:48.378Z,99.90
2019-04-01T03:08:22.976Z,99.90
2019-04-01T03:10:51.836Z,99.90
2019-04-01T03:13:20.762Z,99.90
2019-04-01T03:15:49.604Z,99.90
2019-04-01T03:18:18.571Z,99.90
2019-04-01T03:20:47.353Z,99.90
2019-04-01T03:23:16.210Z,99.90
2019-04-01T03:25:45.484Z,99.90
2019-04-01T03:28:14.469Z,99.90
2019-04-01T03:30:43.349Z,99.90
2019-04-01T03:33:12.243Z,99.90
2019-04-01T03:35:41.184Z,99.90
2019-04-01T03:38:09.982Z,99.90
2019-04-01T03:40:38.952Z,99.90
2019-04-01T03:43:07.832Z,99.90
2019-04-01T03:45:36.747Z,99.90
2019-04-01T03:48:05.607Z,99.90
2019-04-01T03:50:34.478Z,99.90
2019-04-01T03:53:03.532Z,99.90
2019-04-01T03:55:32.469Z,99.90
2019-04-01T03:58:01.411Z,99.90
2019-04-01T04:00:30.290Z,99.90
2019-04-01T04:02:59.360Z,99.90
2019-04-01T04:05:28.173Z,99.90
2019-04-01T04:07:56.989Z,99.90
2019-04-01T04:10:25.867Z,99.90
2019-04-01T04:12:54.782Z,99.90
2019-04-01T04:15:23.648Z,99.90
2019-04-01T04:17:52.875Z,99.90
2019-04-01T04:20:21.801Z,99.90
2019-04-01T04:22:50.821Z,99.90
2019-04-01T04:25:19.638Z,99.90
2019-04-01T04:27:48.464Z,99.90
2019-04-01T04:30:19.663Z,99.90
2019-04-01T04:32:48.573Z,99.90
2019-04-01T04:35:17.455Z,99.90
2019-04-01T04:37:46.352Z,99.90
2019-04-01T04:40:15.961Z,99.90
2019-04-01T04:42:44.834Z,99.90
2019-04-01T04:45:13.858Z,99.90
2019-04-01T04:47:42.653Z,99.90
2019-04-01T04:50:11.536Z,99.90
2019-04-01T04:52:40.332Z,99.90
2019-04-01T04:55:09.303Z,99.90
2019-04-01T04:57:38.183Z,99.90
2019-04-01T05:00:07.539Z,99.90
2019-04-01T05:02:36.476Z,99.90
2019-04-01T05:05:05.808Z,99.90
2019-04-01T05:07:34.656Z,99.90
2019-04-01T05:10:03.642Z,99.90
2019-04-01T05:12:32.501Z,99.90
2019-04-01T05:15:01.429Z,99.90
2019-04-01T05:17:30.254Z,99.90
2019-04-01T05:19:59.270Z,99.90
2019-04-01T05:22:28.626Z,99.90
2019-04-01T05:24:58.125Z,99.90
2019-04-01T05:27:27.171Z,99.90
2019-04-01T05:29:56.150Z,99.90
2019-04-01T05:32:27.179Z,99.90
2019-04-01T05:34:58.324Z,99.90
2019-04-01T05:37:27.162Z,99.90
2019-04-01T05:39:56.224Z,99.90
2019-04-01T05:42:25.244Z,99.90
2019-04-01T05:44:54.127Z,99.90
2019-04-01T05:47:28.358Z,99.90
2019-04-01T05:49:57.502Z,99.90
2019-04-01T05:52:26.481Z,99.90
2019-04-01T05:54:56.666Z,99.90
2019-04-01T05:57:25.615Z,99.90
2019-04-01T05:59:54.655Z,99.90
2019-04-01T06:02:23.513Z,99.90
2019-04-01T06:04:52.537Z,99.90
2019-04-01T06:07:21.979Z,99.90
2019-04-01T06:09:51.233Z,99.90
2019-04-01T06:12:24.040Z,99.90
2019-04-01T06:14:51.667Z,99.90
2019-04-01T06:17:20.660Z,99.90
2019-04-01T06:19:50.766Z,99.90
2019-04-01T06:22:19.752Z,99.90
2019-04-01T06:24:49.254Z,99.90
2019-04-01T06:27:18.707Z,99.90
2019-04-01T06:29:47.679Z,99.90
2019-04-01T06:32:16.628Z,99.90
2019-04-01T06:34:52.636Z,99.90
2019-04-01T06:37:16.488Z,99.90
2019-04-01T06:39:45.497Z,99.90
2019-04-01T06:42:14.415Z,99.90
2019-04-01T06:44:43.382Z,99.90
2019-04-01T06:47:12.300Z,99.90
2019-04-01T06:49:41.262Z,99.90
2019-04-01T06:52:11.313Z,99.90
2019-04-01T06:54:40.231Z,99.90
2019-04-01T06:57:09.164Z,99.90
2019-04-01T06:59:38.579Z,99.90
2019-04-01T07:02:07.572Z,99.90
2019-04-01T07:04:37.071Z,99.90
2019-04-01T07:07:18.401Z,99.90
2019-04-01T07:09:36.719Z,99.90
2019-04-01T07:12:05.587Z,99.90
2019-04-01T07:14:34.562Z,99.90
2019-04-01T07:17:03.420Z,99.90
2019-04-01T07:19:32.631Z,99.90
2019-04-01T07:22:01.582Z,99.90
2019-04-01T07:24:30.520Z,99.90
2019-04-01T07:26:59.458Z,99.90
2019-04-01T07:29:28.303Z,99.90
2019-04-01T07:31:57.353Z,99.60
2019-04-01T07:34:26.163Z,98.80
2019-04-01T07:36:55.156Z,98.80
2019-04-01T07:39:23.997Z,98.80
2019-04-01T07:41:52.927Z,97.80
2019-04-01T07:44:22.109Z,97.10
2019-04-01T07:46:51.110Z,96.30
2019-04-01T07:49:20.160Z,95.80
2019-04-01T07:51:49.527Z,93.90
2019-04-01T07:54:19.287Z,93.10
2019-04-01T07:56:48.787Z,91.50
2019-04-01T07:59:17.663Z,90.30
2019-04-01T08:01:46.710Z,89.30
2019-04-01T08:04:15.735Z,90.10
2019-04-01T08:06:44.582Z,87.90
2019-04-01T08:09:13.673Z,87.90
2019-04-01T08:11:42.602Z,88.00
2019-04-01T08:14:12.065Z,87.50
2019-04-01T08:16:41.043Z,87.30
2019-04-01T08:19:10.211Z,85.40
2019-04-01T08:21:39.113Z,84.60
2019-04-01T08:24:08.189Z,84.20
2019-04-01T08:26:37.288Z,82.80
2019-04-01T08:29:06.285Z,84.30
2019-04-01T08:31:35.156Z,81.10
2019-04-01T08:34:04.335Z,82.00
2019-04-01T08:36:33.343Z,78.60
2019-04-01T08:39:02.240Z,77.90
2019-04-01T08:41:31.173Z,78.60
2019-04-01T08:44:03.076Z,79.50
2019-04-01T08:46:30.753Z,79.80
2019-04-01T08:48:59.567Z,79.00
2019-04-01T08:51:28.332Z,79.00
2019-04-01T08:53:57.201Z,78.20
2019-04-01T08:56:26.156Z,74.20
2019-04-01T08:58:55.796Z,73.30
2019-04-01T09:01:35.193Z,73.00
2019-04-01T09:03:55.285Z,70.10
2019-04-01T09:06:24.201Z,65.90
2019-04-01T09:08:54.364Z,69.70
2019-04-01T09:11:23.643Z,66.70
2019-04-01T09:13:53.501Z,65.80
2019-04-01T09:16:22.922Z,68.00
2019-04-01T09:18:51.796Z,67.00
2019-04-01T09:21:20.567Z,66.90
2019-04-01T09:23:52.025Z,67.60
2019-04-01T09:26:19.896Z,66.00
2019-04-01T09:28:48.685Z,63.70
2019-04-01T09:31:17.507Z,64.70
2019-04-01T09:33:46.412Z,63.80
2019-04-01T09:36:15.241Z,62.70
2019-04-01T09:38:44.070Z,63.80
2019-04-01T09:41:13.521Z,63.00
2019-04-01T09:43:42.651Z,63.60
2019-04-01T09:46:11.533Z,61.70
2019-04-01T09:48:40.576Z,60.30
2019-04-01T09:51:09.465Z,60.10
2019-04-01T09:53:38.233Z,60.40
2019-04-01T09:56:07.018Z,60.80
2019-04-01T09:58:35.895Z,61.90
2019-04-01T10:01:05.028Z,60.20
2019-04-01T10:03:33.881Z,60.90
2019-04-01T10:06:02.855Z,61.90
2019-04-01T10:08:42.174Z,59.70
2019-04-01T10:11:02.159Z,60.00
2019-04-01T10:13:31.032Z,58.60
2019-04-01T10:16:00.129Z,60.10
2019-04-01T10:18:29.075Z,59.00
2019-04-01T10:20:58.029Z,57.90
2019-04-01T10:23:26.810Z,56.60
2019-04-01T10:25:55.674Z,56.90
2019-04-01T10:28:24.595Z,55.90
2019-04-01T10:30:53.388Z,55.70
2019-04-01T10:33:22.272Z,54.80
2019-04-01T10:35:51.074Z,53.20
2019-04-01T10:38:20.007Z,49.10
2019-04-01T10:40:48.886Z,48.50
2019-04-01T10:43:17.791Z,47.20
2019-04-01T10:45:46.820Z,47.30
2019-04-01T10:48:15.715Z,43.80
2019-04-01T10:50:44.781Z,45.50
2019-04-01T10:53:13.654Z,42.70
2019-04-01T10:55:42.666Z,43.50
2019-04-01T10:58:11.572Z,44.90
2019-04-01T11:00:40.566Z,43.80
2019-04-01T11:03:09.648Z,41.90
2019-04-01T11:05:38.467Z,38.70
2019-04-01T11:08:07.482Z,37.90
2019-04-01T11:10:36.598Z,36.10
2019-04-01T11:13:05.506Z,33.00
2019-04-01T11:15:34.293Z,32.10
2019-04-01T11:18:03.218Z,33.60
2019-04-01T11:20:32.076Z,33.90
2019-04-01T11:23:02.719Z,36.20
2019-04-01T11:25:31.620Z,37.80
2019-04-01T11:28:00.443Z,34.70
2019-04-01T11:30:29.729Z,35.50
2019-04-01T11:32:58.626Z,34.40
2019-04-01T11:35:27.712Z,34.20
2019-04-01T11:37:56.561Z,34.20
2019-04-01T11:40:25.413Z,34.20
2019-04-01T11:42:54.565Z,32.10
2019-04-01T11:45:23.663Z,30.20
2019-04-01T11:47:52.599Z,30.00
2019-04-01T11:50:21.518Z,29.30
2019-04-01T11:52:50.580Z,28.00
2019-04-01T11:55:19.571Z,26.20
2019-04-01T11:57:48.368Z,27.40
2019-04-01T12:00:19.698Z,28.00
2019-04-01T12:02:48.619Z,27.10
2019-04-01T12:05:17.534Z,28.00
2019-04-01T12:07:46.439Z,27.40
2019-04-01T12:10:15.384Z,28.70
2019-04-01T12:12:44.284Z,28.00
2019-04-01T12:15:13.316Z,29.00
2019-04-01T12:17:42.437Z,28.90
2019-04-01T12:20:11.456Z,28.10
2019-04-01T12:22:41.289Z,28.40
2019-04-01T12:25:11.155Z,28.80
2019-04-01T12:27:40.083Z,28.70
2019-04-01T12:30:09.551Z,28.50
2019-04-01T12:32:38.534Z,29.50
2019-04-01T12:35:07.924Z,28.80
2019-04-01T12:37:36.939Z,29.80
2019-04-01T12:40:06.272Z,28.80
2019-04-01T12:42:35.333Z,27.70
2019-04-01T12:45:05.314Z,28.20
2019-04-01T12:47:34.244Z,28.90
2019-04-01T12:50:03.818Z,30.00
2019-04-01T12:52:32.695Z,30.00
2019-04-01T12:55:02.445Z,30.10
2019-04-01T12:57:31.465Z,29.60
2019-04-01T13:00:00.333Z,29.60
2019-04-01T13:02:29.315Z,29.60
2019-04-01T13:04:58.593Z,29.50
2019-04-01T13:07:27.547Z,29.90
2019-04-01T13:09:56.415Z,29.90
2019-04-01T13:12:27.275Z,29.20
2019-04-01T13:14:55.968Z,30.00
2019-04-01T13:17:25.194Z,31.20
2019-04-01T13:19:54.143Z,32.30
2019-04-01T13:22:23.241Z,33.30
2019-04-01T13:24:52.527Z,33.30
2019-04-01T13:27:22.075Z,32.10
2019-04-01T13:29:50.886Z,32.10
2019-04-01T13:32:20.325Z,33.80
2019-04-01T13:34:49.770Z,34.70
2019-04-01T13:37:18.933Z,33.00
2019-04-01T13:39:47.950Z,30.60
2019-04-01T13:42:16.758Z,29.20
2019-04-01T13:44:45.698Z,30.30
2019-04-01T13:47:14.975Z,30.50
2019-04-01T13:49:43.931Z,32.30
2019-04-01T13:52:12.993Z,32.70
2019-04-01T13:54:42.049Z,32.10
2019-04-01T13:57:11.013Z,32.30
2019-04-01T13:59:48.984Z,32.10
2019-04-01T14:02:10.791Z,30.40
2019-04-01T14:04:39.738Z,30.40
2019-04-01T14:07:08.685Z,29.50
2019-04-01T14:09:37.601Z,29.20
2019-04-01T14:12:06.650Z,28.80
2019-04-01T14:14:35.463Z,28.40
2019-04-01T14:17:04.297Z,29.40
2019-04-01T14:19:33.159Z,29.80
2019-04-01T14:22:02.064Z,30.30
2019-04-01T14:24:30.974Z,29.30
2019-04-01T14:26:59.912Z,27.90
2019-04-01T14:29:28.778Z,30.50
2019-04-01T14:31:57.900Z,28.90
2019-04-01T14:34:26.960Z,29.80
2019-04-01T14:36:55.823Z,32.20
2019-04-01T14:39:24.667Z,32.80
2019-04-01T14:41:53.605Z,32.70
2019-04-01T14:44:22.433Z,31.80
2019-04-01T14:46:51.474Z,30.00
2019-04-01T14:49:20.263Z,30.50
2019-04-01T14:51:49.298Z,30.10
2019-04-01T14:54:20.671Z,28.80
2019-04-01T14:56:48.983Z,29.00
2019-04-01T14:59:17.921Z,30.40
2019-04-01T15:01:46.827Z,29.50
2019-04-01T15:04:15.707Z,29.80
2019-04-01T15:06:45.276Z,30.30
2019-04-01T15:09:14.789Z,29.80
2019-04-01T15:11:43.836Z,29.40
2019-04-01T15:14:13.076Z,30.30
2019-04-01T15:16:42.771Z,31.80
2019-04-01T15:19:13.027Z,32.00
2019-04-01T15:21:42.210Z,32.90
2019-04-01T15:24:11.133Z,32.70
2019-04-01T15:26:40.016Z,31.80
2019-04-01T15:29:09.004Z,33.40
2019-04-01T15:31:37.852Z,34.00
2019-04-01T15:34:09.179Z,34.60
2019-04-01T15:36:54.218Z,35.00
2019-04-01T15:39:32.880Z,34.40
2019-04-01T15:42:14.375Z,35.00
2019-04-01T15:44:54.133Z,35.90
2019-04-01T15:48:15.545Z,35.40
2019-04-01T15:50:58.426Z,34.50
2019-04-01T15:53:46.997Z,35.00
2019-04-01T15:56:18.364Z,36.00
2019-04-01T15:58:50.569Z,35.40
2019-04-01T16:01:17.988Z,35.30
2019-04-01T16:03:47.250Z,36.50
2019-04-01T16:06:16.078Z,36.10
2019-04-01T16:08:44.857Z,36.20
2019-04-01T16:11:13.836Z,36.60
2019-04-01T16:13:43.189Z,36.30
2019-04-01T16:16:14.444Z,36.20
2019-04-01T16:18:42.947Z,35.70
2019-04-01T16:21:11.822Z,36.20
2019-04-01T16:23:40.718Z,36.40
2019-04-01T16:26:09.797Z,36.00
2019-04-01T16:28:38.691Z,36.30
2019-04-01T16:31:10.563Z,36.90
2019-04-01T16:33:39.495Z,36.80
2019-04-01T16:36:08.377Z,36.30
2019-04-01T16:38:37.203Z,36.00
2019-04-01T16:41:06.105Z,35.50
2019-04-01T16:43:38.075Z,37.10
2019-04-01T16:46:05.635Z,36.30
2019-04-01T16:48:34.602Z,36.30
2019-04-01T16:51:03.504Z,35.90
2019-04-01T16:53:32.431Z,36.20
2019-04-01T16:56:01.455Z,35.50
2019-04-01T16:58:31.075Z,36.10
2019-04-01T17:01:02.533Z,36.30
2019-04-01T17:03:31.253Z,36.00
2019-04-01T17:06:00.076Z,36.20
2019-04-01T17:08:29.806Z,35.90
2019-04-01T17:10:59.072Z,36.10
2019-04-01T17:13:28.057Z,36.10
2019-04-01T17:15:57.120Z,36.00
2019-04-01T17:18:26.005Z,36.00
2019-04-01T17:20:54.997Z,36.30
2019-04-01T17:23:23.867Z,36.40
2019-04-01T17:25:52.673Z,36.40
2019-04-01T17:28:21.512Z,36.60
2019-04-01T17:30:50.402Z,36.50
2019-04-01T17:33:19.240Z,36.60
2019-04-01T17:35:48.206Z,37.20
2019-04-01T17:38:17.142Z,37.00
2019-04-01T17:40:46.057Z,37.30
2019-04-01T17:43:16.313Z,37.40
2019-04-01T17:45:45.631Z,37.10
2019-04-01T17:48:14.456Z,37.40
2019-04-01T17:50:43.365Z,37.90
2019-04-01T17:53:12.884Z,37.80
2019-04-01T17:55:45.207Z,38.20
2019-04-01T17:58:12.434Z,38.50
2019-04-01T18:00:45.339Z,39.00
2019-04-01T18:03:14.198Z,39.00
2019-04-01T18:05:43.464Z,38.80
2019-04-01T18:08:27.707Z,39.10
2019-04-01T18:10:57.410Z,39.50
2019-04-01T18:13:26.738Z,39.50
2019-04-01T18:15:57.351Z,39.60
2019-04-01T18:18:27.524Z,39.50
2019-04-01T18:20:56.700Z,39.10
2019-04-01T18:23:26.457Z,39.00
2019-04-01T18:25:56.078Z,39.60
2019-04-01T18:28:24.929Z,39.20
2019-04-01T18:30:53.840Z,39.50
2019-04-01T18:33:22.641Z,39.80
2019-04-01T18:35:54.209Z,40.00
2019-04-01T18:38:23.295Z,40.30
2019-04-01T18:40:52.402Z,40.40
2019-04-01T18:43:21.560Z,40.00
2019-04-01T18:45:51.250Z,39.90
2019-04-01T18:48:20.429Z,40.00
2019-04-01T18:50:49.339Z,40.10
2019-04-01T18:53:18.518Z,39.80
2019-04-01T18:55:47.344Z,40.20
2019-04-01T18:58:16.353Z,40.00
2019-04-01T19:00:45.343Z,40.40
2019-04-01T19:03:15.169Z,40.60
2019-04-01T19:05:46.906Z,40.80
2019-04-01T19:08:15.054Z,40.70
2019-04-01T19:10:44.170Z,40.70
2019-04-01T19:13:13.340Z,40.60
2019-04-01T19:15:43.604Z,40.70
2019-04-01T19:18:13.024Z,40.70
2019-04-01T19:20:55.326Z,40.80
2019-04-01T19:23:12.772Z,41.00
2019-04-01T19:25:41.616Z,41.10
2019-04-01T19:28:10.574Z,41.00
2019-04-01T19:30:39.571Z,40.90
2019-04-01T19:33:09.064Z,41.00
2019-04-01T19:35:38.385Z,40.80
2019-04-01T19:38:07.536Z,41.60
2019-04-01T19:40:36.848Z,42.00
2019-04-01T19:43:05.971Z,42.00
2019-04-01T19:45:34.984Z,42.10
2019-04-01T19:48:03.974Z,42.20
2019-04-01T19:50:33.171Z,42.20
2019-04-01T19:53:02.829Z,42.10
2019-04-01T19:55:32.151Z,42.10
2019-04-01T19:58:01.156Z,42.30
2019-04-01T20:00:30.783Z,42.10
2019-04-01T20:03:00.125Z,42.30
2019-04-01T20:05:29.332Z,42.20
2019-04-01T20:07:58.359Z,42.90
2019-04-01T20:10:28.520Z,42.50
2019-04-01T20:12:58.081Z,42.80
2019-04-01T20:15:28.771Z,42.70
2019-04-01T20:18:00.564Z,42.90
2019-04-01T20:20:31.006Z,42.90
2019-04-01T20:23:00.351Z,43.10
2019-04-01T20:25:29.497Z,43.00
2019-04-01T20:27:58.377Z,43.30
2019-04-01T20:30:28.454Z,43.50
2019-04-01T20:32:57.407Z,43.40
2019-04-01T20:35:27.263Z,43.70
2019-04-01T20:37:57.320Z,43.60
2019-04-01T20:40:27.616Z,43.70
2019-04-01T20:42:56.565Z,43.90
2019-04-01T20:45:25.518Z,44.40
2019-04-01T20:47:54.402Z,44.60
2019-04-01T20:50:23.404Z,44.50
2019-04-01T20:52:52.383Z,44.40
2019-04-01T20:55:21.279Z,44.40
2019-04-01T20:57:50.100Z,44.40
2019-04-01T21:00:19.095Z,44.40
2019-04-01T21:02:47.940Z,44.50
2019-04-01T21:05:17.603Z,44.60
2019-04-01T21:07:47.222Z,44.90
2019-04-01T21:10:16.763Z,45.00
2019-04-01T21:12:47.641Z,45.30
2019-04-01T21:15:17.353Z,45.60
2019-04-01T21:17:46.361Z,45.40
2019-04-01T21:20:15.657Z,45.80
2019-04-01T21:22:47.420Z,45.90
2019-04-01T21:25:16.505Z,46.00
2019-04-01T21:28:00.446Z,46.00
2019-04-01T21:30:29.344Z,46.10
2019-04-01T21:32:58.257Z,46.30
2019-04-01T21:35:27.215Z,46.40
2019-04-01T21:37:56.035Z,46.80
2019-04-01T21:40:28.039Z,47.20
2019-04-01T21:42:57.434Z,47.00
2019-04-01T21:45:26.479Z,47.10
2019-04-01T21:47:55.306Z,47.50
2019-04-01T21:50:24.157Z,47.20
2019-04-01T21:52:53.134Z,47.60
2019-04-01T21:55:22.017Z,47.60
2019-04-01T21:57:51.322Z,47.80
2019-04-01T22:00:30.234Z,48.00
2019-04-01T22:02:59.131Z,48.40
2019-04-01T22:05:28.072Z,48.30
2019-04-01T22:07:57.181Z,48.40
2019-04-01T22:10:27.758Z,48.40
2019-04-01T22:12:56.804Z,48.50
2019-04-01T22:15:25.701Z,48.50
2019-04-01T22:17:54.632Z,48.20
2019-04-01T22:20:23.558Z,48.80
2019-04-01T22:22:52.347Z,48.00
2019-04-01T22:25:21.376Z,47.80
2019-04-01T22:27:50.337Z,47.50
2019-04-01T22:30:19.508Z,47.50
2019-04-01T22:32:48.331Z,47.50
2019-04-01T22:35:17.507Z,47.30
2019-04-01T22:37:46.291Z,47.60
2019-04-01T22:40:15.402Z,47.60
2019-04-01T22:42:44.274Z,47.50
2019-04-01T22:45:13.116Z,47.30
2019-04-01T22:47:41.919Z,46.90
2019-04-01T22:50:10.891Z,47.00
2019-04-01T22:52:42.044Z,47.40
2019-04-01T22:55:10.368Z,47.60
2019-04-01T22:57:39.164Z,47.40
2019-04-01T23:00:08.609Z,47.70
2019-04-01T23:02:37.519Z,47.50
2019-04-01T23:05:08.289Z,47.70
2019-04-01T23:07:37.119Z,47.80
2019-04-01T23:10:06.811Z,47.70
2019-04-01T23:12:35.709Z,47.60
2019-04-01T23:15:05.213Z,47.90
2019-04-01T23:17:34.032Z,47.70
2019-04-01T23:20:03.505Z,47.50
2019-04-01T23:22:32.920Z,47.70
2019-04-01T23:25:01.911Z,47.10
2019-04-01T23:27:30.696Z,47.00
2019-04-01T23:29:59.534Z,47.50
2019-04-01T23:32:28.521Z,47.40
2019-04-01T23:34:57.257Z,47.60
2019-04-01T23:37:26.110Z,47.80
2019-04-01T23:39:54.902Z,47.60
2019-04-01T23:42:23.733Z,47.50
2019-04-01T23:44:52.751Z,47.40
2019-04-01T23:47:21.702Z,47.70
2019-04-01T23:49:50.533Z,47.70
2019-04-01T23:52:19.315Z,47.80
2019-04-01T23:54:48.256Z,47.70
2019-04-01T23:57:17.020Z,47.60
2019-04-01T23:59:45.844Z,47.60
